sensor_id;sensor_type;location;lat;lon;timestamp;pressure;altitude;pressure_sealevel;temperature;humidity
61128;BME280;47013;42.664;23.242;2023-11-19T00:01:26;93945.28;;;2.96;83.40
61128;BME280;47013;42.664;23.242;2023-11-19T00:03:51;93941.66;;;3.08;84.18
61128;BME280;47013;42.664;23.242;2023-11-19T00:06:17;93953.22;;;3.12;82.82
61128;BME280;47013;42.664;23.242;2023-11-19T00:08:42;93945.06;;;3.05;82.45
61128;BME280;47013;42.664;23.242;2023-11-19T00:11:09;93940.19;;;3.11;81.64
61128;BME280;47013;42.664;23.242;2023-11-19T00:13:34;93938.22;;;3.08;81.50
61128;BME280;47013;42.664;23.242;2023-11-19T00:16:00;93939.34;;;3.07;82.08
61128;BME280;47013;42.664;23.242;2023-11-19T00:18:25;93948.06;;;3.00;82.08
61128;BME280;47013;42.664;23.242;2023-11-19T00:20:50;93943.16;;;3.06;82.30
61128;BME280;47013;42.664;23.242;2023-11-19T00:23:16;93945.72;;;2.99;82.65
61128;BME280;47013;42.664;23.242;2023-11-19T00:25:41;93952.28;;;3.01;82.50
61128;BME280;47013;42.664;23.242;2023-11-19T00:28:07;93951.19;;;3.06;81.78
61128;BME280;47013;42.664;23.242;2023-11-19T00:30:33;93948.53;;;3.06;82.71
61128;BME280;47013;42.664;23.242;2023-11-19T00:32:58;93949.16;;;2.99;82.40
61128;BME280;47013;42.664;23.242;2023-11-19T00:35:23;93953.06;;;3.02;82.37
61128;BME280;47013;42.664;23.242;2023-11-19T00:37:49;93960.13;;;2.90;82.61
61128;BME280;47013;42.664;23.242;2023-11-19T00:40:15;93957.09;;;2.73;83.40
61128;BME280;47013;42.664;23.242;2023-11-19T00:42:43;93962.91;;;2.75;83.50
61128;BME280;47013;42.664;23.242;2023-11-19T00:45:09;93962.66;;;2.83;84.16
61128;BME280;47013;42.664;23.242;2023-11-19T00:47:35;93953.91;;;2.86;83.93
61128;BME280;47013;42.664;23.242;2023-11-19T00:50:01;93955.03;;;2.85;83.71
61128;BME280;47013;42.664;23.242;2023-11-19T00:52:26;93940.09;;;2.84;83.23
61128;BME280;47013;42.664;23.242;2023-11-19T00:54:52;93955.19;;;2.92;83.83
61128;BME280;47013;42.664;23.242;2023-11-19T00:57:17;93959.63;;;2.85;83.47
61128;BME280;47013;42.664;23.242;2023-11-19T00:59:43;93945.72;;;2.76;84.16
61128;BME280;47013;42.664;23.242;2023-11-19T01:02:08;93954.44;;;2.73;84.15
61128;BME280;47013;42.664;23.242;2023-11-19T01:04:35;93959.56;;;2.81;84.14
61128;BME280;47013;42.664;23.242;2023-11-19T01:07:04;93958.44;;;2.82;84.24
61128;BME280;47013;42.664;23.242;2023-11-19T01:09:31;93966.47;;;2.82;83.76
61128;BME280;47013;42.664;23.242;2023-11-19T01:12:00;93953.81;;;2.79;83.92
61128;BME280;47013;42.664;23.242;2023-11-19T01:14:26;93963.31;;;2.77;83.84
61128;BME280;47013;42.664;23.242;2023-11-19T01:16:51;93952.81;;;2.87;83.76
61128;BME280;47013;42.664;23.242;2023-11-19T01:19:19;93961.16;;;2.86;84.08
61128;BME280;47013;42.664;23.242;2023-11-19T01:21:44;93971.88;;;2.86;83.88
61128;BME280;47013;42.664;23.242;2023-11-19T01:24:10;93960.28;;;2.78;83.76
61128;BME280;47013;42.664;23.242;2023-11-19T01:26:38;93968.44;;;2.85;83.59
61128;BME280;47013;42.664;23.242;2023-11-19T01:29:03;93976.00;;;2.80;83.43
61128;BME280;47013;42.664;23.242;2023-11-19T01:31:30;93963.94;;;2.89;84.14
61128;BME280;47013;42.664;23.242;2023-11-19T01:33:57;93962.56;;;2.99;82.45
61128;BME280;47013;42.664;23.242;2023-11-19T01:36:22;93981.59;;;2.94;82.63
61128;BME280;47013;42.664;23.242;2023-11-19T01:38:48;93975.63;;;3.01;82.64
61128;BME280;47013;42.664;23.242;2023-11-19T01:41:14;93985.88;;;2.99;82.52
61128;BME280;47013;42.664;23.242;2023-11-19T01:43:39;93985.47;;;2.96;82.20
61128;BME280;47013;42.664;23.242;2023-11-19T01:46:08;93972.06;;;2.96;82.10
61128;BME280;47013;42.664;23.242;2023-11-19T01:48:38;93982.78;;;2.96;81.58
61128;BME280;47013;42.664;23.242;2023-11-19T01:51:06;93987.09;;;3.01;81.15
61128;BME280;47013;42.664;23.242;2023-11-19T01:53:34;93987.09;;;3.01;80.79
61128;BME280;47013;42.664;23.242;2023-11-19T01:56:01;93991.91;;;2.92;80.77
61128;BME280;47013;42.664;23.242;2023-11-19T01:58:26;94003.81;;;2.94;81.12
61128;BME280;47013;42.664;23.242;2023-11-19T02:00:52;93999.09;;;2.88;80.69
61128;BME280;47013;42.664;23.242;2023-11-19T02:03:19;94006.00;;;2.89;80.57
61128;BME280;47013;42.664;23.242;2023-11-19T02:05:45;93997.56;;;2.87;80.51
61128;BME280;47013;42.664;23.242;2023-11-19T02:08:14;93984.63;;;2.92;80.15
61128;BME280;47013;42.664;23.242;2023-11-19T02:10:39;93983.25;;;2.79;80.41
61128;BME280;47013;42.664;23.242;2023-11-19T02:13:04;93975.56;;;2.78;80.94
61128;BME280;47013;42.664;23.242;2023-11-19T02:15:31;93986.66;;;2.76;81.19
61128;BME280;47013;42.664;23.242;2023-11-19T02:17:57;93983.66;;;2.81;81.24
61128;BME280;47013;42.664;23.242;2023-11-19T02:20:22;93984.84;;;2.84;80.79
61128;BME280;47013;42.664;23.242;2023-11-19T02:22:49;93980.06;;;2.93;80.90
61128;BME280;47013;42.664;23.242;2023-11-19T02:25:26;93976.19;;;2.90;80.09
61128;BME280;47013;42.664;23.242;2023-11-19T02:27:58;93973.47;;;2.87;79.86
61128;BME280;47013;42.664;23.242;2023-11-19T02:30:25;93968.38;;;2.82;79.98
61128;BME280;47013;42.664;23.242;2023-11-19T02:32:54;93972.59;;;2.83;80.01
61128;BME280;47013;42.664;23.242;2023-11-19T02:35:23;93952.09;;;2.90;80.05
61128;BME280;47013;42.664;23.242;2023-11-19T02:37:48;93946.31;;;2.88;79.69
61128;BME280;47013;42.664;23.242;2023-11-19T02:40:14;93945.78;;;2.79;79.57
61128;BME280;47013;42.664;23.242;2023-11-19T02:42:39;93956.34;;;2.72;80.33
61128;BME280;47013;42.664;23.242;2023-11-19T02:45:05;93952.25;;;2.59;80.88
61128;BME280;47013;42.664;23.242;2023-11-19T02:47:32;93963.41;;;2.61;80.77
61128;BME280;47013;42.664;23.242;2023-11-19T02:49:58;93971.88;;;2.63;80.68
61128;BME280;47013;42.664;23.242;2023-11-19T02:52:24;93971.66;;;2.52;80.82
61128;BME280;47013;42.664;23.242;2023-11-19T02:54:50;93966.03;;;2.38;81.32
61128;BME280;47013;42.664;23.242;2023-11-19T02:57:15;93963.78;;;2.40;82.33
61128;BME280;47013;42.664;23.242;2023-11-19T02:59:44;93968.69;;;2.38;81.78
61128;BME280;47013;42.664;23.242;2023-11-19T03:02:09;93965.59;;;2.36;81.65
61128;BME280;47013;42.664;23.242;2023-11-19T03:04:37;93973.28;;;2.38;81.68
61128;BME280;47013;42.664;23.242;2023-11-19T03:07:05;93966.38;;;2.36;81.73
61128;BME280;47013;42.664;23.242;2023-11-19T03:09:30;93967.50;;;2.35;81.97
61128;BME280;47013;42.664;23.242;2023-11-19T03:11:56;93975.88;;;2.34;82.44
61128;BME280;47013;42.664;23.242;2023-11-19T03:14:21;93996.28;;;2.42;82.48
61128;BME280;47013;42.664;23.242;2023-11-19T03:16:48;93995.69;;;2.49;81.34
61128;BME280;47013;42.664;23.242;2023-11-19T03:19:13;93990.81;;;2.54;81.26
61128;BME280;47013;42.664;23.242;2023-11-19T03:21:38;93991.78;;;2.46;81.56
61128;BME280;47013;42.664;23.242;2023-11-19T03:24:04;93984.09;;;2.45;81.68
61128;BME280;47013;42.664;23.242;2023-11-19T03:26:29;93990.66;;;2.47;81.38
61128;BME280;47013;42.664;23.242;2023-11-19T03:28:55;93983.44;;;2.48;80.93
61128;BME280;47013;42.664;23.242;2023-11-19T03:31:22;93989.47;;;2.45;82.26
61128;BME280;47013;42.664;23.242;2023-11-19T03:33:48;93986.66;;;2.38;81.95
61128;BME280;47013;42.664;23.242;2023-11-19T03:36:13;93991.78;;;2.46;81.99
61128;BME280;47013;42.664;23.242;2023-11-19T03:38:38;93995.22;;;2.47;81.29
61128;BME280;47013;42.664;23.242;2023-11-19T03:41:14;94000.53;;;2.43;81.52
61128;BME280;47013;42.664;23.242;2023-11-19T03:43:40;93995.16;;;2.43;81.38
61128;BME280;47013;42.664;23.242;2023-11-19T03:46:35;94013.13;;;2.43;81.86
61128;BME280;47013;42.664;23.242;2023-11-19T03:49:01;94015.44;;;2.44;82.36
61128;BME280;47013;42.664;23.242;2023-11-19T03:51:27;94020.09;;;2.47;81.13
61128;BME280;47013;42.664;23.242;2023-11-19T03:53:52;94028.81;;;2.44;81.84
61128;BME280;47013;42.664;23.242;2023-11-19T03:56:18;94025.44;;;2.47;81.18
61128;BME280;47013;42.664;23.242;2023-11-19T03:58:43;94018.22;;;2.48;82.18
61128;BME280;47013;42.664;23.242;2023-11-19T04:01:12;94017.28;;;2.40;81.71
61128;BME280;47013;42.664;23.242;2023-11-19T04:03:41;94028.19;;;2.31;82.87
61128;BME280;47013;42.664;23.242;2023-11-19T04:06:06;94038.28;;;2.38;82.46
61128;BME280;47013;42.664;23.242;2023-11-19T04:08:32;94036.16;;;2.47;81.72
61128;BME280;47013;42.664;23.242;2023-11-19T04:10:57;94027.34;;;2.47;81.64
61128;BME280;47013;42.664;23.242;2023-11-19T04:13:23;94043.13;;;2.52;81.50
61128;BME280;47013;42.664;23.242;2023-11-19T04:15:50;94049.75;;;2.58;81.32
61128;BME280;47013;42.664;23.242;2023-11-19T04:18:15;94050.25;;;2.63;81.00
61128;BME280;47013;42.664;23.242;2023-11-19T04:20:41;94051.47;;;2.66;81.09
61128;BME280;47013;42.664;23.242;2023-11-19T04:23:08;94043.28;;;2.59;80.18
61128;BME280;47013;42.664;23.242;2023-11-19T04:25:35;94038.91;;;2.51;80.68
61128;BME280;47013;42.664;23.242;2023-11-19T04:28:00;94039.03;;;2.58;80.57
61128;BME280;47013;42.664;23.242;2023-11-19T04:30:25;94047.22;;;2.65;80.32
61128;BME280;47013;42.664;23.242;2023-11-19T04:32:51;94048.31;;;2.60;80.12
61128;BME280;47013;42.664;23.242;2023-11-19T04:35:16;94044.75;;;2.56;80.04
61128;BME280;47013;42.664;23.242;2023-11-19T04:37:42;94050.34;;;2.48;81.19
61128;BME280;47013;42.664;23.242;2023-11-19T04:40:07;94049.81;;;2.42;80.44
61128;BME280;47013;42.664;23.242;2023-11-19T04:42:33;94052.84;;;2.41;80.88
61128;BME280;47013;42.664;23.242;2023-11-19T04:44:58;94034.53;;;2.43;81.16
61128;BME280;47013;42.664;23.242;2023-11-19T04:47:24;94039.81;;;2.58;81.29
61128;BME280;47013;42.664;23.242;2023-11-19T04:49:49;94039.63;;;2.48;80.34
61128;BME280;47013;42.664;23.242;2023-11-19T04:52:14;94048.50;;;2.52;80.74
61128;BME280;47013;42.664;23.242;2023-11-19T04:54:43;94042.00;;;2.53;80.19
61128;BME280;47013;42.664;23.242;2023-11-19T04:57:09;94041.81;;;2.61;80.17
61128;BME280;47013;42.664;23.242;2023-11-19T04:59:38;94049.59;;;2.31;81.00
61128;BME280;47013;42.664;23.242;2023-11-19T05:02:04;94054.31;;;2.38;81.44
61128;BME280;47013;42.664;23.242;2023-11-19T05:04:30;94051.09;;;2.48;80.88
61128;BME280;47013;42.664;23.242;2023-11-19T05:06:56;94063.50;;;2.56;80.39
61128;BME280;47013;42.664;23.242;2023-11-19T05:09:21;94078.84;;;2.59;80.05
61128;BME280;47013;42.664;23.242;2023-11-19T05:11:47;94082.59;;;2.55;79.24
61128;BME280;47013;42.664;23.242;2023-11-19T05:14:13;94083.00;;;2.57;79.87
61128;BME280;47013;42.664;23.242;2023-11-19T05:16:39;94076.94;;;2.60;79.05
61128;BME280;47013;42.664;23.242;2023-11-19T05:19:05;94074.97;;;2.57;79.21
61128;BME280;47013;42.664;23.242;2023-11-19T05:21:31;94064.00;;;2.62;78.87
61128;BME280;47013;42.664;23.242;2023-11-19T05:23:56;94061.75;;;2.64;79.91
61128;BME280;47013;42.664;23.242;2023-11-19T05:26:23;94069.00;;;2.63;79.52
61128;BME280;47013;42.664;23.242;2023-11-19T05:28:49;94060.03;;;2.56;79.77
61128;BME280;47013;42.664;23.242;2023-11-19T05:31:16;94070.31;;;2.54;79.67
61128;BME280;47013;42.664;23.242;2023-11-19T05:33:42;94059.13;;;2.48;79.65
61128;BME280;47013;42.664;23.242;2023-11-19T05:36:08;94067.41;;;2.43;79.94
61128;BME280;47013;42.664;23.242;2023-11-19T05:38:35;94075.66;;;2.34;80.28
61128;BME280;47013;42.664;23.242;2023-11-19T05:41:01;94076.44;;;2.35;80.36
61128;BME280;47013;42.664;23.242;2023-11-19T05:43:26;94077.28;;;2.39;80.63
61128;BME280;47013;42.664;23.242;2023-11-19T05:45:52;94077.09;;;2.48;80.46
61128;BME280;47013;42.664;23.242;2023-11-19T05:48:17;94089.53;;;2.40;80.71
61128;BME280;47013;42.664;23.242;2023-11-19T05:50:43;94082.97;;;2.38;81.34
61128;BME280;47013;42.664;23.242;2023-11-19T05:53:08;94087.13;;;2.35;80.73
61128;BME280;47013;42.664;23.242;2023-11-19T05:55:38;94097.13;;;2.38;80.68
61128;BME280;47013;42.664;23.242;2023-11-19T05:58:11;94081.91;;;2.23;80.92
61128;BME280;47013;42.664;23.242;2023-11-19T06:00:40;94100.19;;;2.21;81.36
61128;BME280;47013;42.664;23.242;2023-11-19T06:03:07;94098.03;;;2.26;81.39
61128;BME280;47013;42.664;23.242;2023-11-19T06:05:32;94112.31;;;2.34;81.02
61128;BME280;47013;42.664;23.242;2023-11-19T06:07:58;94112.84;;;2.40;81.10
61128;BME280;47013;42.664;23.242;2023-11-19T06:10:23;94110.16;;;2.40;81.02
61128;BME280;47013;42.664;23.242;2023-11-19T06:12:54;94107.91;;;2.42;80.62
61128;BME280;47013;42.664;23.242;2023-11-19T06:15:22;94104.94;;;2.27;80.90
61128;BME280;47013;42.664;23.242;2023-11-19T06:17:47;94107.09;;;2.22;81.38
61128;BME280;47013;42.664;23.242;2023-11-19T06:20:13;94116.03;;;2.29;81.71
61128;BME280;47013;42.664;23.242;2023-11-19T06:22:39;94106.41;;;2.25;81.84
61128;BME280;47013;42.664;23.242;2023-11-19T06:25:07;94103.31;;;2.23;81.28
61128;BME280;47013;42.664;23.242;2023-11-19T06:27:33;94108.56;;;2.19;81.85
61128;BME280;47013;42.664;23.242;2023-11-19T06:29:58;94114.50;;;2.28;81.81
61128;BME280;47013;42.664;23.242;2023-11-19T06:32:24;94107.31;;;2.32;80.86
61128;BME280;47013;42.664;23.242;2023-11-19T06:34:49;94091.38;;;2.36;81.03
61128;BME280;47013;42.664;23.242;2023-11-19T06:37:14;94109.38;;;2.39;80.50
61128;BME280;47013;42.664;23.242;2023-11-19T06:39:40;94124.44;;;2.28;82.02
61128;BME280;47013;42.664;23.242;2023-11-19T06:42:06;94126.75;;;2.29;81.10
61128;BME280;47013;42.664;23.242;2023-11-19T06:44:31;94114.44;;;2.25;80.58
61128;BME280;47013;42.664;23.242;2023-11-19T06:46:56;94122.53;;;2.28;81.32
61128;BME280;47013;42.664;23.242;2023-11-19T06:49:22;94129.34;;;2.26;80.87
61128;BME280;47013;42.664;23.242;2023-11-19T06:51:48;94122.44;;;2.25;81.23
61128;BME280;47013;42.664;23.242;2023-11-19T06:54:13;94110.28;;;2.27;80.23
61128;BME280;47013;42.664;23.242;2023-11-19T06:56:39;94116.41;;;2.28;81.06
61128;BME280;47013;42.664;23.242;2023-11-19T06:59:04;94115.38;;;2.17;80.81
61128;BME280;47013;42.664;23.242;2023-11-19T07:01:34;94123.06;;;2.18;81.01
61128;BME280;47013;42.664;23.242;2023-11-19T07:04:00;94128.31;;;2.15;80.81
61128;BME280;47013;42.664;23.242;2023-11-19T07:06:27;94123.56;;;2.24;79.95
61128;BME280;47013;42.664;23.242;2023-11-19T07:08:52;94126.59;;;2.22;80.17
61128;BME280;47013;42.664;23.242;2023-11-19T07:11:18;94138.31;;;2.18;80.13
61128;BME280;47013;42.664;23.242;2023-11-19T07:13:43;94136.78;;;2.17;80.28
61128;BME280;47013;42.664;23.242;2023-11-19T07:16:08;94122.97;;;2.15;79.98
61128;BME280;47013;42.664;23.242;2023-11-19T07:18:36;94123.75;;;2.15;79.87
61128;BME280;47013;42.664;23.242;2023-11-19T07:21:04;94125.72;;;2.18;80.35
61128;BME280;47013;42.664;23.242;2023-11-19T07:23:29;94127.81;;;2.09;79.59
61128;BME280;47013;42.664;23.242;2023-11-19T07:25:56;94129.28;;;2.06;80.18
61128;BME280;47013;42.664;23.242;2023-11-19T07:28:21;94122.91;;;2.11;80.51
61128;BME280;47013;42.664;23.242;2023-11-19T07:30:47;94128.50;;;2.06;81.16
61128;BME280;47013;42.664;23.242;2023-11-19T07:33:12;94144.19;;;2.07;80.10
61128;BME280;47013;42.664;23.242;2023-11-19T07:35:39;94155.78;;;2.12;79.63
61128;BME280;47013;42.664;23.242;2023-11-19T07:38:06;94156.78;;;2.07;80.18
61128;BME280;47013;42.664;23.242;2023-11-19T07:40:31;94157.41;;;2.16;80.37
61128;BME280;47013;42.664;23.242;2023-11-19T07:42:57;94147.13;;;2.18;79.73
61128;BME280;47013;42.664;23.242;2023-11-19T07:45:22;94156.44;;;2.24;79.75
61128;BME280;47013;42.664;23.242;2023-11-19T07:47:47;94153.84;;;2.28;79.55
61128;BME280;47013;42.664;23.242;2023-11-19T07:50:13;94138.94;;;2.27;79.01
61128;BME280;47013;42.664;23.242;2023-11-19T07:52:41;94158.50;;;2.31;78.57
61128;BME280;47013;42.664;23.242;2023-11-19T07:55:07;94154.63;;;2.28;77.78
61128;BME280;47013;42.664;23.242;2023-11-19T07:57:33;94159.13;;;2.24;78.05
61128;BME280;47013;42.664;23.242;2023-11-19T07:59:58;94154.72;;;2.16;78.02
61128;BME280;47013;42.664;23.242;2023-11-19T08:02:23;94152.75;;;2.13;78.59
61128;BME280;47013;42.664;23.242;2023-11-19T08:04:49;94168.72;;;2.25;79.20
61128;BME280;47013;42.664;23.242;2023-11-19T08:07:17;94170.97;;;2.23;78.14
61128;BME280;47013;42.664;23.242;2023-11-19T08:09:43;94179.31;;;2.38;79.57
61128;BME280;47013;42.664;23.242;2023-11-19T08:12:08;94178.34;;;2.30;78.50
61128;BME280;47013;42.664;23.242;2023-11-19T08:14:35;94181.91;;;2.18;78.80
61128;BME280;47013;42.664;23.242;2023-11-19T08:17:00;94181.66;;;2.23;78.88
61128;BME280;47013;42.664;23.242;2023-11-19T08:19:26;94181.81;;;2.15;80.22
61128;BME280;47013;42.664;23.242;2023-11-19T08:21:51;94180.53;;;2.24;79.15
61128;BME280;47013;42.664;23.242;2023-11-19T08:24:17;94183.56;;;2.23;79.30
61128;BME280;47013;42.664;23.242;2023-11-19T08:26:42;94186.81;;;2.32;83.12
61128;BME280;47013;42.664;23.242;2023-11-19T08:29:08;94183.53;;;2.39;78.89
61128;BME280;47013;42.664;23.242;2023-11-19T08:31:34;94171.28;;;2.38;78.80
61128;BME280;47013;42.664;23.242;2023-11-19T08:34:00;94181.19;;;2.53;78.52
61128;BME280;47013;42.664;23.242;2023-11-19T08:36:25;94176.69;;;2.57;77.58
61128;BME280;47013;42.664;23.242;2023-11-19T08:38:53;94186.00;;;2.63;77.74
61128;BME280;47013;42.664;23.242;2023-11-19T08:41:18;94196.09;;;2.70;77.67
61128;BME280;47013;42.664;23.242;2023-11-19T08:43:44;94193.75;;;2.68;77.39
61128;BME280;47013;42.664;23.242;2023-11-19T08:46:11;94193.69;;;2.64;77.23
61128;BME280;47013;42.664;23.242;2023-11-19T08:48:36;94204.56;;;2.56;77.43
61128;BME280;47013;42.664;23.242;2023-11-19T08:51:02;94190.16;;;2.45;77.46
61128;BME280;47013;42.664;23.242;2023-11-19T08:53:28;94185.25;;;2.47;78.58
61128;BME280;47013;42.664;23.242;2023-11-19T08:55:53;94187.84;;;2.43;77.64
61128;BME280;47013;42.664;23.242;2023-11-19T08:58:18;94195.53;;;2.45;77.31
61128;BME280;47013;42.664;23.242;2023-11-19T09:00:44;94191.63;;;2.42;77.02
61128;BME280;47013;42.664;23.242;2023-11-19T09:03:11;94190.09;;;2.41;76.60
61128;BME280;47013;42.664;23.242;2023-11-19T09:05:37;94178.25;;;2.42;77.77
61128;BME280;47013;42.664;23.242;2023-11-19T09:08:02;94185.16;;;2.43;78.48
61128;BME280;47013;42.664;23.242;2023-11-19T09:10:29;94177.50;;;2.42;77.33
61128;BME280;47013;42.664;23.242;2023-11-19T09:12:55;94165.13;;;2.53;78.85
61128;BME280;47013;42.664;23.242;2023-11-19T09:15:20;94167.03;;;2.52;77.93
61128;BME280;47013;42.664;23.242;2023-11-19T09:17:45;94161.16;;;2.47;77.68
61128;BME280;47013;42.664;23.242;2023-11-19T09:20:11;94165.13;;;2.53;78.18
61128;BME280;47013;42.664;23.242;2023-11-19T09:22:39;94177.88;;;2.59;77.39
61128;BME280;47013;42.664;23.242;2023-11-19T09:25:05;94190.94;;;2.61;77.24
61128;BME280;47013;42.664;23.242;2023-11-19T09:27:31;94189.19;;;2.69;77.24
61128;BME280;47013;42.664;23.242;2023-11-19T09:29:56;94196.09;;;2.70;76.93
61128;BME280;47013;42.664;23.242;2023-11-19T09:32:23;94194.28;;;2.74;76.45
61128;BME280;47013;42.664;23.242;2023-11-19T09:34:49;94168.28;;;2.74;76.79
61128;BME280;47013;42.664;23.242;2023-11-19T09:37:15;94164.19;;;2.80;76.31
61128;BME280;47013;42.664;23.242;2023-11-19T09:39:40;94162.78;;;2.86;76.63
61128;BME280;47013;42.664;23.242;2023-11-19T09:42:11;94147.06;;;2.85;76.53
61128;BME280;47013;42.664;23.242;2023-11-19T09:44:37;94146.03;;;2.89;76.53
61128;BME280;47013;42.664;23.242;2023-11-19T09:47:04;94146.88;;;2.93;77.17
61128;BME280;47013;42.664;23.242;2023-11-19T09:49:30;94127.34;;;2.93;76.78
61128;BME280;47013;42.664;23.242;2023-11-19T09:51:55;94112.84;;;2.94;77.25
61128;BME280;47013;42.664;23.242;2023-11-19T09:54:21;94101.75;;;2.95;76.71
61128;BME280;47013;42.664;23.242;2023-11-19T09:56:47;94112.28;;;3.04;77.60
61128;BME280;47013;42.664;23.242;2023-11-19T09:59:13;94110.00;;;3.06;76.76
61128;BME280;47013;42.664;23.242;2023-11-19T10:01:42;94103.09;;;3.24;75.97
61128;BME280;47013;42.664;23.242;2023-11-19T10:04:09;94112.31;;;3.46;74.93
61128;BME280;47013;42.664;23.242;2023-11-19T10:06:37;94120.91;;;3.78;74.30
61128;BME280;47013;42.664;23.242;2023-11-19T10:09:02;94116.19;;;4.18;73.03
61128;BME280;47013;42.664;23.242;2023-11-19T10:11:30;94117.22;;;4.36;71.00
61128;BME280;47013;42.664;23.242;2023-11-19T10:13:55;94109.50;;;4.31;71.31
61128;BME280;47013;42.664;23.242;2023-11-19T10:16:28;94111.41;;;4.30;70.66
61128;BME280;47013;42.664;23.242;2023-11-19T10:18:55;94115.63;;;4.58;68.94
61128;BME280;47013;42.664;23.242;2023-11-19T10:21:20;94120.03;;;4.43;69.32
61128;BME280;47013;42.664;23.242;2023-11-19T10:23:48;94126.81;;;4.63;69.67
61128;BME280;47013;42.664;23.242;2023-11-19T10:26:15;94122.44;;;4.52;67.32
61128;BME280;47013;42.664;23.242;2023-11-19T10:28:41;94107.25;;;4.36;68.08
61128;BME280;47013;42.664;23.242;2023-11-19T10:31:11;94092.16;;;4.02;69.67
61128;BME280;47013;42.664;23.242;2023-11-19T10:33:38;94094.59;;;4.10;69.21
61128;BME280;47013;42.664;23.242;2023-11-19T10:36:03;94089.06;;;4.00;68.51
61128;BME280;47013;42.664;23.242;2023-11-19T10:38:29;94093.66;;;3.99;69.73
61128;BME280;47013;42.664;23.242;2023-11-19T10:40:55;94095.16;;;3.97;69.02
61128;BME280;47013;42.664;23.242;2023-11-19T10:43:22;94105.34;;;3.88;69.92
61128;BME280;47013;42.664;23.242;2023-11-19T10:45:48;94095.69;;;3.83;70.41
61128;BME280;47013;42.664;23.242;2023-11-19T10:48:14;94093.56;;;3.92;70.34
61128;BME280;47013;42.664;23.242;2023-11-19T10:50:41;94107.97;;;4.07;68.77
61128;BME280;47013;42.664;23.242;2023-11-19T10:53:08;94107.13;;;4.03;68.71
61128;BME280;47013;42.664;23.242;2023-11-19T10:55:35;94098.31;;;4.02;69.19
61128;BME280;47013;42.664;23.242;2023-11-19T10:58:03;94093.88;;;4.13;69.09
61128;BME280;47013;42.664;23.242;2023-11-19T11:00:30;94079.28;;;4.11;67.64
61128;BME280;47013;42.664;23.242;2023-11-19T11:03:00;94081.50;;;4.05;68.84
61128;BME280;47013;42.664;23.242;2023-11-19T11:05:32;94083.88;;;4.10;69.29
61128;BME280;47013;42.664;23.242;2023-11-19T11:08:00;94060.34;;;4.27;68.35
61128;BME280;47013;42.664;23.242;2023-11-19T11:10:30;94050.72;;;4.82;70.06
61128;BME280;47013;42.664;23.242;2023-11-19T11:12:59;94045.88;;;4.95;65.09
61128;BME280;47013;42.664;23.242;2023-11-19T11:15:27;94042.91;;;5.41;64.14
61128;BME280;47013;42.664;23.242;2023-11-19T11:18:01;94046.09;;;5.94;62.47
61128;BME280;47013;42.664;23.242;2023-11-19T11:20:31;94046.34;;;6.26;58.93
61128;BME280;47013;42.664;23.242;2023-11-19T11:25:55;94047.13;;;7.10;56.79
61128;BME280;47013;42.664;23.242;2023-11-19T11:31:08;94037.66;;;7.69;52.79
61128;BME280;47013;42.664;23.242;2023-11-19T11:36:21;94033.41;;;7.83;50.28
61128;BME280;47013;42.664;23.242;2023-11-19T11:38:50;94032.66;;;8.11;50.13
61128;BME280;47013;42.664;23.242;2023-11-19T11:41:23;94022.97;;;8.45;48.63
61128;BME280;47013;42.664;23.242;2023-11-19T11:43:53;94015.63;;;8.53;48.28
61128;BME280;47013;42.664;23.242;2023-11-19T11:46:55;94018.69;;;8.73;47.81
61128;BME280;47013;42.664;23.242;2023-11-19T11:49:25;94002.13;;;8.49;47.95
61128;BME280;47013;42.664;23.242;2023-11-19T11:51:58;94012.94;;;8.46;48.00
61128;BME280;47013;42.664;23.242;2023-11-19T11:57:12;94021.03;;;8.46;60.39
61128;BME280;47013;42.664;23.242;2023-11-19T12:02:08;94012.19;;;7.92;50.10
61128;BME280;47013;42.664;23.242;2023-11-19T12:04:38;94009.13;;;7.68;50.24
61128;BME280;47013;42.664;23.242;2023-11-19T12:07:18;93995.22;;;7.63;51.26
61128;BME280;47013;42.664;23.242;2023-11-19T12:09:53;94008.28;;;7.29;51.44
61128;BME280;47013;42.664;23.242;2023-11-19T12:12:27;93998.56;;;6.96;52.21
61128;BME280;47013;42.664;23.242;2023-11-19T12:15:06;93999.13;;;6.50;53.11
61128;BME280;47013;42.664;23.242;2023-11-19T12:19:59;93995.53;;;6.25;55.26
61128;BME280;47013;42.664;23.242;2023-11-19T12:22:25;93983.97;;;6.20;55.78
61128;BME280;47013;42.664;23.242;2023-11-19T12:24:52;93990.88;;;6.18;55.04
61128;BME280;47013;42.664;23.242;2023-11-19T12:27:19;93970.41;;;5.99;56.21
61128;BME280;47013;42.664;23.242;2023-11-19T12:29:47;93982.66;;;5.93;55.81
61128;BME280;47013;42.664;23.242;2023-11-19T12:32:12;93977.97;;;5.86;56.28
61128;BME280;47013;42.664;23.242;2023-11-19T12:34:39;93970.56;;;5.73;57.18
61128;BME280;47013;42.664;23.242;2023-11-19T12:37:04;93962.75;;;5.57;57.42
61128;BME280;47013;42.664;23.242;2023-11-19T12:39:30;93966.28;;;5.65;57.68
61128;BME280;47013;42.664;23.242;2023-11-19T12:41:56;93968.19;;;5.60;57.01
61128;BME280;47013;42.664;23.242;2023-11-19T12:44:24;93974.34;;;5.65;58.48
61128;BME280;47013;42.664;23.242;2023-11-19T12:47:03;93974.75;;;5.70;57.99
61128;BME280;47013;42.664;23.242;2023-11-19T12:49:29;93965.13;;;5.66;57.32
61128;BME280;47013;42.664;23.242;2023-11-19T12:51:54;93970.53;;;5.69;58.01
61128;BME280;47013;42.664;23.242;2023-11-19T12:54:20;93964.75;;;5.67;58.60
61128;BME280;47013;42.664;23.242;2023-11-19T12:56:54;93956.69;;;5.67;58.74
61128;BME280;47013;42.664;23.242;2023-11-19T12:59:20;93953.59;;;5.61;58.31
61128;BME280;47013;42.664;23.242;2023-11-19T13:01:55;93960.44;;;5.55;58.11
61128;BME280;47013;42.664;23.242;2023-11-19T13:04:21;93943.06;;;5.46;59.07
61128;BME280;47013;42.664;23.242;2023-11-19T13:06:47;93952.34;;;5.48;59.38
61128;BME280;47013;42.664;23.242;2023-11-19T13:09:26;93951.19;;;5.49;57.74
61128;BME280;47013;42.664;23.242;2023-11-19T13:11:52;93948.13;;;5.54;57.55
61128;BME280;47013;42.664;23.242;2023-11-19T13:14:18;93955.84;;;5.59;57.13